sensor_id;sensor_type;location;lat;lon;timestamp;P1;durP1;ratioP1;P2;durP2;ratioP2
41514;SDS011;27247;48.020;16.720;2023-02-22T00:00:22;11.73;;;7.55;;
41514;SDS011;27247;48.020;16.720;2023-02-22T00:04:38;11.07;;;7.07;;
41514;SDS011;27247;48.020;16.720;2023-02-22T00:08:48;13.20;;;7.32;;
41514;SDS011;27247;48.020;16.720;2023-02-22T00:12:58;13.07;;;7.95;;
41514;SDS011;27247;48.020;16.720;2023-02-22T00:27:22;10.48;;;7.53;;
41514;SDS011;27247;48.020;16.720;2023-02-22T00:31:36;12.10;;;7.00;;
41514;SDS011;27247;48.020;16.720;2023-02-22T00:35:47;11.60;;;7.68;;
41514;SDS011;27247;48.020;16.720;2023-02-22T00:39:57;15.07;;;7.55;;
41514;SDS011;27247;48.020;16.720;2023-02-22T00:44:08;12.65;;;6.60;;
41514;SDS011;27247;48.020;16.720;2023-02-22T00:48:18;12.27;;;7.80;;
41514;SDS011;27247;48.020;16.720;2023-02-22T00:52:29;11.88;;;7.53;;
41514;SDS011;27247;48.020;16.720;2023-02-22T00:56:39;12.63;;;6.80;;
41514;SDS011;27247;48.020;16.720;2023-02-22T01:00:49;10.00;;;6.40;;
41514;SDS011;27247;48.020;16.720;2023-02-22T01:05:00;9.60;;;6.60;;
41514;SDS011;27247;48.020;16.720;2023-02-22T01:09:10;9.80;;;5.97;;
41514;SDS011;27247;48.020;16.720;2023-02-22T01:13:20;9.52;;;6.05;;
41514;SDS011;27247;48.020;16.720;2023-02-22T01:17:32;8.30;;;5.32;;
41514;SDS011;27247;48.020;16.720;2023-02-22T01:21:42;11.63;;;5.25;;
41514;SDS011;27247;48.020;16.720;2023-02-22T01:25:52;11.25;;;6.00;;
41514;SDS011;27247;48.020;16.720;2023-02-22T01:30:03;8.98;;;5.80;;
41514;SDS011;27247;48.020;16.720;2023-02-22T01:34:18;8.82;;;5.70;;
41514;SDS011;27247;48.020;16.720;2023-02-22T01:38:29;8.85;;;5.68;;
41514;SDS011;27247;48.020;16.720;2023-02-22T01:42:39;6.88;;;5.63;;
41514;SDS011;27247;48.020;16.720;2023-02-22T01:46:49;7.32;;;4.93;;
41514;SDS011;27247;48.020;16.720;2023-02-22T01:51:14;8.75;;;5.25;;
41514;SDS011;27247;48.020;16.720;2023-02-22T01:55:27;7.07;;;5.07;;
41514;SDS011;27247;48.020;16.720;2023-02-22T01:59:39;9.57;;;5.63;;
41514;SDS011;27247;48.020;16.720;2023-02-22T02:03:55;9.90;;;5.32;;
41514;SDS011;27247;48.020;16.720;2023-02-22T02:08:20;11.07;;;5.63;;
41514;SDS011;27247;48.020;16.720;2023-02-22T02:12:36;8.00;;;4.90;;
41514;SDS011;27247;48.020;16.720;2023-02-22T02:16:47;9.05;;;5.45;;
41514;SDS011;27247;48.020;16.720;2023-02-22T02:39:11;11.63;;;5.63;;
41514;SDS011;27247;48.020;16.720;2023-02-22T02:43:37;6.70;;;4.63;;
41514;SDS011;27247;48.020;16.720;2023-02-22T02:47:54;8.63;;;4.95;;
41514;SDS011;27247;48.020;16.720;2023-02-22T02:52:08;7.28;;;4.45;;
41514;SDS011;27247;48.020;16.720;2023-02-22T02:56:22;6.22;;;4.40;;
41514;SDS011;27247;48.020;16.720;2023-02-22T03:00:33;7.25;;;4.90;;
41514;SDS011;27247;48.020;16.720;2023-02-22T03:22:42;7.90;;;4.25;;
41514;SDS011;27247;48.020;16.720;2023-02-22T03:27:05;7.95;;;4.88;;
41514;SDS011;27247;48.020;16.720;2023-02-22T03:31:22;7.35;;;4.57;;
41514;SDS011;27247;48.020;16.720;2023-02-22T03:35:38;6.20;;;4.05;;
41514;SDS011;27247;48.020;16.720;2023-02-22T03:39:57;6.88;;;4.63;;
41514;SDS011;27247;48.020;16.720;2023-02-22T03:44:11;6.78;;;4.80;;
41514;SDS011;27247;48.020;16.720;2023-02-22T03:48:30;6.95;;;4.55;;
41514;SDS011;27247;48.020;16.720;2023-02-22T03:52:48;6.65;;;4.57;;
41514;SDS011;27247;48.020;16.720;2023-02-22T03:57:00;8.82;;;4.72;;
41514;SDS011;27247;48.020;16.720;2023-02-22T04:01:17;9.98;;;5.30;;
41514;SDS011;27247;48.020;16.720;2023-02-22T04:05:29;10.27;;;5.10;;
41514;SDS011;27247;48.020;16.720;2023-02-22T04:09:39;9.50;;;6.15;;
41514;SDS011;27247;48.020;16.720;2023-02-22T04:13:50;9.00;;;6.13;;
41514;SDS011;27247;48.020;16.720;2023-02-22T04:18:01;8.93;;;5.18;;
41514;SDS011;27247;48.020;16.720;2023-02-22T04:22:11;6.97;;;4.80;;
41514;SDS011;27247;48.020;16.720;2023-02-22T04:26:21;10.67;;;4.53;;
41514;SDS011;27247;48.020;16.720;2023-02-22T04:30:32;5.82;;;4.18;;
41514;SDS011;27247;48.020;16.720;2023-02-22T04:34:42;5.72;;;4.10;;
41514;SDS011;27247;48.020;16.720;2023-02-22T04:38:53;8.65;;;4.50;;
41514;SDS011;27247;48.020;16.720;2023-02-22T04:43:04;6.70;;;4.78;;
41514;SDS011;27247;48.020;16.720;2023-02-22T04:47:14;38.77;;;16.57;;
41514;SDS011;27247;48.020;16.720;2023-02-22T04:51:24;16.65;;;8.30;;
41514;SDS011;27247;48.020;16.720;2023-02-22T04:55:35;8.75;;;4.65;;
41514;SDS011;27247;48.020;16.720;2023-02-22T04:59:45;6.10;;;4.20;;
41514;SDS011;27247;48.020;16.720;2023-02-22T05:03:56;8.53;;;4.93;;
41514;SDS011;27247;48.020;16.720;2023-02-22T05:08:06;17.00;;;4.60;;
41514;SDS011;27247;48.020;16.720;2023-02-22T05:12:16;11.35;;;4.25;;
41514;SDS011;27247;48.020;16.720;2023-02-22T05:16:27;9.90;;;4.28;;
41514;SDS011;27247;48.020;16.720;2023-02-22T05:20:37;6.57;;;4.10;;
41514;SDS011;27247;48.020;16.720;2023-02-22T05:24:47;7.70;;;5.00;;
41514;SDS011;27247;48.020;16.720;2023-02-22T05:28:58;6.60;;;4.60;;
41514;SDS011;27247;48.020;16.720;2023-02-22T05:33:08;10.70;;;5.00;;
41514;SDS011;27247;48.020;16.720;2023-02-22T05:37:19;7.60;;;5.50;;
41514;SDS011;27247;48.020;16.720;2023-02-22T05:41:29;8.00;;;5.30;;
41514;SDS011;27247;48.020;16.720;2023-02-22T05:45:40;8.13;;;4.90;;
41514;SDS011;27247;48.020;16.720;2023-02-22T05:49:51;7.63;;;4.95;;
41514;SDS011;27247;48.020;16.720;2023-02-22T05:54:01;7.35;;;5.15;;
41514;SDS011;27247;48.020;16.720;2023-02-22T05:58:11;8.70;;;5.47;;
41514;SDS011;27247;48.020;16.720;2023-02-22T06:02:22;7.18;;;4.47;;
41514;SDS011;27247;48.020;16.720;2023-02-22T06:06:32;6.72;;;5.00;;
41514;SDS011;27247;48.020;16.720;2023-02-22T06:10:43;7.60;;;4.77;;
41514;SDS011;27247;48.020;16.720;2023-02-22T06:14:53;7.93;;;5.07;;
41514;SDS011;27247;48.020;16.720;2023-02-22T06:19:04;7.70;;;5.10;;
41514;SDS011;27247;48.020;16.720;2023-02-22T06:23:14;8.00;;;5.33;;
41514;SDS011;27247;48.020;16.720;2023-02-22T06:27:24;12.00;;;5.25;;
41514;SDS011;27247;48.020;16.720;2023-02-22T06:31:35;11.38;;;5.28;;
41514;SDS011;27247;48.020;16.720;2023-02-22T06:35:45;8.98;;;5.38;;
41514;SDS011;27247;48.020;16.720;2023-02-22T06:39:56;9.18;;;5.55;;
41514;SDS011;27247;48.020;16.720;2023-02-22T06:44:07;8.10;;;5.50;;
41514;SDS011;27247;48.020;16.720;2023-02-22T06:48:17;6.68;;;4.78;;
41514;SDS011;27247;48.020;16.720;2023-02-22T06:52:28;6.50;;;4.57;;
41514;SDS011;27247;48.020;16.720;2023-02-22T06:56:38;6.88;;;5.05;;
41514;SDS011;27247;48.020;16.720;2023-02-22T07:00:48;10.93;;;6.30;;
41514;SDS011;27247;48.020;16.720;2023-02-22T07:04:59;8.20;;;5.50;;
41514;SDS011;27247;48.020;16.720;2023-02-22T07:09:09;11.43;;;5.82;;
41514;SDS011;27247;48.020;16.720;2023-02-22T07:13:21;8.05;;;5.40;;
41514;SDS011;27247;48.020;16.720;2023-02-22T07:17:32;8.60;;;5.55;;
41514;SDS011;27247;48.020;16.720;2023-02-22T07:21:42;10.38;;;6.13;;
41514;SDS011;27247;48.020;16.720;2023-02-22T07:25:52;8.80;;;4.77;;
41514;SDS011;27247;48.020;16.720;2023-02-22T07:30:04;7.53;;;4.85;;
41514;SDS011;27247;48.020;16.720;2023-02-22T07:34:16;10.25;;;5.63;;
41514;SDS011;27247;48.020;16.720;2023-02-22T07:38:26;8.88;;;5.38;;
41514;SDS011;27247;48.020;16.720;2023-02-22T07:43:12;7.55;;;4.95;;
41514;SDS011;27247;48.020;16.720;2023-02-22T07:47:44;9.13;;;5.57;;
41514;SDS011;27247;48.020;16.720;2023-02-22T07:51:56;7.97;;;5.97;;
41514;SDS011;27247;48.020;16.720;2023-02-22T07:56:06;10.45;;;6.53;;
41514;SDS011;27247;48.020;16.720;2023-02-22T08:00:25;8.68;;;6.22;;
41514;SDS011;27247;48.020;16.720;2023-02-22T08:04:40;8.90;;;6.40;;
41514;SDS011;27247;48.020;16.720;2023-02-22T08:08:51;12.67;;;6.73;;
41514;SDS011;27247;48.020;16.720;2023-02-22T08:13:01;9.63;;;5.43;;
41514;SDS011;27247;48.020;16.720;2023-02-22T08:17:13;7.85;;;5.03;;
41514;SDS011;27247;48.020;16.720;2023-02-22T08:21:23;10.65;;;5.50;;
41514;SDS011;27247;48.020;16.720;2023-02-22T08:25:34;12.77;;;7.07;;
41514;SDS011;27247;48.020;16.720;2023-02-22T08:29:46;12.52;;;6.43;;
41514;SDS011;27247;48.020;16.720;2023-02-22T08:33:56;13.05;;;7.53;;
41514;SDS011;27247;48.020;16.720;2023-02-22T08:38:13;11.95;;;7.78;;
41514;SDS011;27247;48.020;16.720;2023-02-22T08:42:26;13.75;;;7.78;;
41514;SDS011;27247;48.020;16.720;2023-02-22T08:46:36;15.52;;;6.93;;
41514;SDS011;27247;48.020;16.720;2023-02-22T08:50:47;13.50;;;7.30;;
41514;SDS011;27247;48.020;16.720;2023-02-22T08:54:58;10.38;;;7.00;;
41514;SDS011;27247;48.020;16.720;2023-02-22T08:59:09;8.38;;;4.68;;
41514;SDS011;27247;48.020;16.720;2023-02-22T09:03:20;8.27;;;5.25;;
41514;SDS011;27247;48.020;16.720;2023-02-22T09:07:30;10.02;;;5.40;;
41514;SDS011;27247;48.020;16.720;2023-02-22T09:11:42;9.73;;;4.93;;
41514;SDS011;27247;48.020;16.720;2023-02-22T09:15:52;8.63;;;4.93;;
41514;SDS011;27247;48.020;16.720;2023-02-22T09:20:03;8.13;;;4.97;;
41514;SDS011;27247;48.020;16.720;2023-02-22T09:24:15;6.70;;;4.47;;
41514;SDS011;27247;48.020;16.720;2023-02-22T09:28:25;10.80;;;4.70;;
41514;SDS011;27247;48.020;16.720;2023-02-22T09:32:36;10.48;;;4.38;;
41514;SDS011;27247;48.020;16.720;2023-02-22T09:36:47;6.65;;;4.20;;
41514;SDS011;27247;48.020;16.720;2023-02-22T09:41:07;8.43;;;4.20;;
41514;SDS011;27247;48.020;16.720;2023-02-22T09:45:31;5.85;;;4.25;;
41514;SDS011;27247;48.020;16.720;2023-02-22T09:54:03;6.03;;;4.03;;
41514;SDS011;27247;48.020;16.720;2023-02-22T09:58:24;7.82;;;3.97;;
41514;SDS011;27247;48.020;16.720;2023-02-22T10:03:04;6.00;;;3.85;;
41514;SDS011;27247;48.020;16.720;2023-02-22T10:11:59;5.68;;;4.38;;
41514;SDS011;27247;48.020;16.720;2023-02-22T10:16:25;4.82;;;3.65;;
41514;SDS011;27247;48.020;16.720;2023-02-22T10:20:58;9.00;;;4.15;;
41514;SDS011;27247;48.020;16.720;2023-02-22T10:25:18;4.93;;;3.55;;
41514;SDS011;27247;48.020;16.720;2023-02-22T10:33:46;5.40;;;3.40;;
41514;SDS011;27247;48.020;16.720;2023-02-22T10:38:00;6.20;;;4.00;;
41514;SDS011;27247;48.020;16.720;2023-02-22T10:42:22;6.38;;;4.20;;
41514;SDS011;27247;48.020;16.720;2023-02-22T10:46:35;11.13;;;3.53;;
41514;SDS011;27247;48.020;16.720;2023-02-22T10:50:48;5.50;;;3.80;;
41514;SDS011;27247;48.020;16.720;2023-02-22T10:55:03;5.00;;;3.17;;
41514;SDS011;27247;48.020;16.720;2023-02-22T11:04:02;5.40;;;3.70;;
41514;SDS011;27247;48.020;16.720;2023-02-22T11:16:42;4.53;;;3.38;;
41514;SDS011;27247;48.020;16.720;2023-02-22T11:21:06;4.38;;;2.63;;
41514;SDS011;27247;48.020;16.720;2023-02-22T11:25:23;4.43;;;3.03;;
41514;SDS011;27247;48.020;16.720;2023-02-22T11:29:36;4.10;;;3.13;;
41514;SDS011;27247;48.020;16.720;2023-02-22T11:33:52;4.32;;;2.80;;
41514;SDS011;27247;48.020;16.720;2023-02-22T11:42:35;5.68;;;3.40;;
41514;SDS011;27247;48.020;16.720;2023-02-22T11:46:45;4.10;;;2.93;;
41514;SDS011;27247;48.020;16.720;2023-02-22T11:50:58;4.07;;;3.22;;
41514;SDS011;27247;48.020;16.720;2023-02-22T11:55:27;6.30;;;4.68;;
41514;SDS011;27247;48.020;16.720;2023-02-22T12:09:32;6.72;;;5.90;;
41514;SDS011;27247;48.020;16.720;2023-02-22T12:18:26;11.60;;;8.35;;
41514;SDS011;27247;48.020;16.720;2023-02-22T12:22:39;9.40;;;6.05;;
41514;SDS011;27247;48.020;16.720;2023-02-22T12:27:10;10.10;;;7.93;;
41514;SDS011;27247;48.020;16.720;2023-02-22T12:36:01;10.55;;;7.00;;
41514;SDS011;27247;48.020;16.720;2023-02-22T12:44:34;7.57;;;4.03;;
41514;SDS011;27247;48.020;16.720;2023-02-22T12:49:00;4.40;;;3.22;;
41514;SDS011;27247;48.020;16.720;2023-02-22T12:53:33;6.80;;;4.95;;
41514;SDS011;27247;48.020;16.720;2023-02-22T13:02:46;5.35;;;3.20;;
41514;SDS011;27247;48.020;16.720;2023-02-22T13:15:54;5.07;;;3.40;;
41514;SDS011;27247;48.020;16.720;2023-02-22T13:29:15;4.07;;;2.75;;
41514;SDS011;27247;48.020;16.720;2023-02-22T13:43:00;4.18;;;3.17;;
41514;SDS011;27247;48.020;16.720;2023-02-22T13:47:44;5.13;;;3.35;;
41514;SDS011;27247;48.020;16.720;2023-02-22T13:52:19;6.03;;;3.20;;
41514;SDS011;27247;48.020;16.720;2023-02-22T13:56:33;4.65;;;2.83;;
41514;SDS011;27247;48.020;16.720;2023-02-22T14:00:48;4.22;;;3.10;;
41514;SDS011;27247;48.020;16.720;2023-02-22T14:09:55;3.88;;;3.00;;
41514;SDS011;27247;48.020;16.720;2023-02-22T14:14:08;4.80;;;3.30;;
41514;SDS011;27247;48.020;16.720;2023-02-22T14:18:20;4.03;;;3.05;;
41514;SDS011;27247;48.020;16.720;2023-02-22T14:22:30;4.70;;;3.20;;
41514;SDS011;27247;48.020;16.720;2023-02-22T14:26:52;4.80;;;2.83;;
41514;SDS011;27247;48.020;16.720;2023-02-22T14:31:06;5.13;;;3.42;;
41514;SDS011;27247;48.020;16.720;2023-02-22T14:35:19;4.63;;;3.40;;
41514;SDS011;27247;48.020;16.720;2023-02-22T14:39:35;6.55;;;3.78;;
41514;SDS011;27247;48.020;16.720;2023-02-22T14:43:49;4.53;;;3.30;;
41514;SDS011;27247;48.020;16.720;2023-02-22T14:48:05;5.65;;;4.40;;
41514;SDS011;27247;48.020;16.720;2023-02-22T14:52:24;7.68;;;3.78;;
41514;SDS011;27247;48.020;16.720;2023-02-22T15:00:50;9.50;;;4.88;;
41514;SDS011;27247;48.020;16.720;2023-02-22T15:05:02;8.65;;;6.75;;
41514;SDS011;27247;48.020;16.720;2023-02-22T15:13:32;11.37;;;6.83;;
41514;SDS011;27247;48.020;16.720;2023-02-22T15:17:43;14.23;;;6.60;;
41514;SDS011;27247;48.020;16.720;2023-02-22T15:21:55;11.32;;;7.22;;
41514;SDS011;27247;48.020;16.720;2023-02-22T15:26:15;13.05;;;7.03;;
41514;SDS011;27247;48.020;16.720;2023-02-22T15:30:34;9.95;;;6.80;;
41514;SDS011;27247;48.020;16.720;2023-02-22T15:34:45;10.63;;;6.93;;
41514;SDS011;27247;48.020;16.720;2023-02-22T15:38:55;10.20;;;6.50;;
41514;SDS011;27247;48.020;16.720;2023-02-22T15:43:06;11.18;;;6.95;;
41514;SDS011;27247;48.020;16.720;2023-02-22T15:47:24;12.95;;;7.28;;
41514;SDS011;27247;48.020;16.720;2023-02-22T15:51:37;10.98;;;6.70;;
41514;SDS011;27247;48.020;16.720;2023-02-22T15:55:54;10.48;;;6.70;;
41514;SDS011;27247;48.020;16.720;2023-02-22T16:00:16;10.65;;;6.32;;
41514;SDS011;27247;48.020;16.720;2023-02-22T16:04:29;11.55;;;6.95;;
41514;SDS011;27247;48.020;16.720;2023-02-22T16:08:50;11.25;;;6.78;;
41514;SDS011;27247;48.020;16.720;2023-02-22T16:13:02;15.50;;;7.13;;
41514;SDS011;27247;48.020;16.720;2023-02-22T16:17:37;12.23;;;6.97;;
41514;SDS011;27247;48.020;16.720;2023-02-22T16:21:51;11.23;;;7.13;;
41514;SDS011;27247;48.020;16.720;2023-02-22T16:26:28;11.60;;;6.68;;
41514;SDS011;27247;48.020;16.720;2023-02-22T16:30:42;10.20;;;6.80;;
41514;SDS011;27247;48.020;16.720;2023-02-22T16:34:53;11.05;;;6.70;;
41514;SDS011;27247;48.020;16.720;2023-02-22T16:39:04;11.80;;;7.28;;
41514;SDS011;27247;48.020;16.720;2023-02-22T16:43:17;11.90;;;7.35;;
41514;SDS011;27247;48.020;16.720;2023-02-22T16:47:31;12.10;;;7.15;;
41514;SDS011;27247;48.020;16.720;2023-02-22T16:51:43;11.65;;;7.40;;
41514;SDS011;27247;48.020;16.720;2023-02-22T16:55:57;13.18;;;8.07;;
41514;SDS011;27247;48.020;16.720;2023-02-22T17:00:19;13.40;;;8.18;;
41514;SDS011;27247;48.020;16.720;2023-02-22T17:04:40;13.07;;;8.40;;
41514;SDS011;27247;48.020;16.720;2023-02-22T17:08:52;19.63;;;10.05;;
41514;SDS011;27247;48.020;16.720;2023-02-22T17:13:04;20.05;;;10.25;;
41514;SDS011;27247;48.020;16.720;2023-02-22T17:17:18;18.20;;;10.63;;
41514;SDS011;27247;48.020;16.720;2023-02-22T17:21:29;16.73;;;9.80;;
41514;SDS011;27247;48.020;16.720;2023-02-22T17:25:50;18.73;;;10.13;;
41514;SDS011;27247;48.020;16.720;2023-02-22T17:30:05;16.20;;;10.77;;
41514;SDS011;27247;48.020;16.720;2023-02-22T17:34:25;17.25;;;10.68;;
41514;SDS011;27247;48.020;16.720;2023-02-22T17:38:37;19.92;;;11.05;;
41514;SDS011;27247;48.020;16.720;2023-02-22T17:42:50;17.30;;;11.27;;
41514;SDS011;27247;48.020;16.720;2023-02-22T17:47:04;18.25;;;11.20;;
41514;SDS011;27247;48.020;16.720;2023-02-22T17:51:15;18.38;;;11.65;;
41514;SDS011;27247;48.020;16.720;2023-02-22T17:55:25;19.05;;;11.45;;
41514;SDS011;27247;48.020;16.720;2023-02-22T17:59:38;20.45;;;11.73;;
41514;SDS011;27247;48.020;16.720;2023-02-22T18:03:49;20.95;;;11.75;;
41514;SDS011;27247;48.020;16.720;2023-02-22T18:08:00;21.48;;;13.05;;
41514;SDS011;27247;48.020;16.720;2023-02-22T18:12:11;22.73;;;13.30;;
41514;SDS011;27247;48.020;16.720;2023-02-22T18:16:23;20.75;;;12.80;;
41514;SDS011;27247;48.020;16.720;2023-02-22T18:20:35;26.23;;;14.10;;
41514;SDS011;27247;48.020;16.720;2023-02-22T18:24:49;24.88;;;12.27;;
41514;SDS011;27247;48.020;16.720;2023-02-22T18:29:06;24.88;;;13.77;;
41514;SDS011;27247;48.020;16.720;2023-02-22T18:33:21;23.13;;;13.88;;
41514;SDS011;27247;48.020;16.720;2023-02-22T18:37:32;24.23;;;14.20;;
41514;SDS011;27247;48.020;16.720;2023-02-22T18:41:43;22.95;;;14.48;;
41514;SDS011;27247;48.020;16.720;2023-02-22T18:46:07;24.83;;;15.75;;
41514;SDS011;27247;48.020;16.720;2023-02-22T18:50:18;24.48;;;13.40;;
41514;SDS011;27247;48.020;16.720;2023-02-22T18:54:30;27.45;;;16.08;;
41514;SDS011;27247;48.020;16.720;2023-02-22T18:58:41;29.05;;;15.27;;
41514;SDS011;27247;48.020;16.720;2023-02-22T19:02:55;23.92;;;15.40;;
41514;SDS011;27247;48.020;16.720;2023-02-22T19:07:06;27.60;;;15.55;;
41514;SDS011;27247;48.020;16.720;2023-02-22T19:11:20;24.58;;;15.75;;
41514;SDS011;27247;48.020;16.720;2023-02-22T19:15:33;23.08;;;14.45;;
41514;SDS011;27247;48.020;16.720;2023-02-22T19:19:47;29.27;;;16.52;;
41514;SDS011;27247;48.020;16.720;2023-02-22T19:23:58;27.60;;;14.95;;
41514;SDS011;27247;48.020;16.720;2023-02-22T19:28:10;28.40;;;17.52;;
41514;SDS011;27247;48.020;16.720;2023-02-22T19:32:21;26.10;;;15.63;;
41514;SDS011;27247;48.020;16.720;2023-02-22T19:36:32;28.33;;;17.10;;
41514;SDS011;27247;48.020;16.720;2023-02-22T19:40:44;25.98;;;15.43;;
41514;SDS011;27247;48.020;16.720;2023-02-22T19:44:55;29.67;;;16.83;;
41514;SDS011;27247;48.020;16.720;2023-02-22T19:49:06;26.30;;;15.95;;
41514;SDS011;27247;48.020;16.720;2023-02-22T19:53:17;24.80;;;15.00;;
41514;SDS011;27247;48.020;16.720;2023-02-22T19:57:28;28.48;;;15.27;;
41514;SDS011;27247;48.020;16.720;2023-02-22T20:01:39;24.20;;;15.10;;
41514;SDS011;27247;48.020;16.720;2023-02-22T20:05:55;30.17;;;15.57;;
41514;SDS011;27247;48.020;16.720;2023-02-22T20:10:07;32.35;;;17.00;;
41514;SDS011;27247;48.020;16.720;2023-02-22T20:14:21;28.48;;;16.20;;
41514;SDS011;27247;48.020;16.720;2023-02-22T20:18:34;28.05;;;15.57;;
41514;SDS011;27247;48.020;16.720;2023-02-22T20:22:45;25.52;;;16.02;;
41514;SDS011;27247;48.020;16.720;2023-02-22T20:26:56;25.95;;;16.40;;
41514;SDS011;27247;48.020;16.720;2023-02-22T20:31:08;34.25;;;17.42;;
41514;SDS011;27247;48.020;16.720;2023-02-22T20:35:28;27.63;;;17.00;;
41514;SDS011;27247;48.020;16.720;2023-02-22T20:39:40;28.17;;;17.25;;
41514;SDS011;27247;48.020;16.720;2023-02-22T20:43:53;28.45;;;15.88;;
41514;SDS011;27247;48.020;16.720;2023-02-22T20:48:06;30.80;;;18.10;;
41514;SDS011;27247;48.020;16.720;2023-02-22T20:52:17;31.38;;;16.73;;
41514;SDS011;27247;48.020;16.720;2023-02-22T20:56:30;26.60;;;15.80;;
41514;SDS011;27247;48.020;16.720;2023-02-22T21:00:42;26.58;;;16.85;;
41514;SDS011;27247;48.020;16.720;2023-02-22T21:04:53;29.65;;;16.27;;
41514;SDS011;27247;48.020;16.720;2023-02-22T21:09:04;34.72;;;17.55;;
41514;SDS011;27247;48.020;16.720;2023-02-22T21:13:17;34.50;;;17.17;;
41514;SDS011;27247;48.020;16.720;2023-02-22T21:17:28;32.13;;;17.20;;
41514;SDS011;27247;48.020;16.720;2023-02-22T21:21:39;32.63;;;17.40;;
41514;SDS011;27247;48.020;16.720;2023-02-22T21:25:51;31.25;;;17.10;;
41514;SDS011;27247;48.020;16.720;2023-02-22T21:30:02;30.13;;;17.38;;
41514;SDS011;27247;48.020;16.720;2023-02-22T21:34:13;28.92;;;15.90;;
41514;SDS011;27247;48.020;16.720;2023-02-22T21:38:27;31.55;;;16.55;;
41514;SDS011;27247;48.020;16.720;2023-02-22T21:42:38;35.22;;;17.52;;
41514;SDS011;27247;48.020;16.720;2023-02-22T21:46:49;30.30;;;16.30;;
41514;SDS011;27247;48.020;16.720;2023-02-22T21:51:09;34.63;;;17.75;;
41514;SDS011;27247;48.020;16.720;2023-02-22T21:55:22;33.85;;;18.05;;
41514;SDS011;27247;48.020;16.720;2023-02-22T21:59:33;33.28;;;17.95;;
41514;SDS011;27247;48.020;16.720;2023-02-22T22:03:44;30.58;;;18.17;;
41514;SDS011;27247;48.020;16.720;2023-02-22T22:07:55;34.35;;;18.90;;
41514;SDS011;27247;48.020;16.720;2023-02-22T22:12:06;34.30;;;17.63;;
41514;SDS011;27247;48.020;16.720;2023-02-22T22:16:19;33.35;;;18.98;;
41514;SDS011;27247;48.020;16.720;2023-02-22T22:20:29;33.92;;;18.05;;
41514;SDS011;27247;48.020;16.720;2023-02-22T22:24:39;36.60;;;18.58;;
41514;SDS011;27247;48.020;16.720;2023-02-22T22:28:56;35.72;;;19.77;;
41514;SDS011;27247;48.020;16.720;2023-02-22T22:33:07;36.05;;;19.45;;
41514;SDS011;27247;48.020;16.720;2023-02-22T22:37:20;35.88;;;19.17;;
41514;SDS011;27247;48.020;16.720;2023-02-22T22:41:31;33.15;;;18.30;;
41514;SDS011;27247;48.020;16.720;2023-02-22T22:45:42;33.53;;;18.45;;
41514;SDS011;27247;48.020;16.720;2023-02-22T22:49:53;32.95;;;18.63;;
41514;SDS011;27247;48.020;16.720;2023-02-22T22:54:10;37.60;;;19.38;;
41514;SDS011;27247;48.020;16.720;2023-02-22T22:58:20;34.70;;;18.52;;
41514;SDS011;27247;48.020;16.720;2023-02-22T23:02:30;31.27;;;17.13;;
41514;SDS011;27247;48.020;16.720;2023-02-22T23:06:42;33.83;;;18.27;;
41514;SDS011;27247;48.020;16.720;2023-02-22T23:10:58;31.65;;;18.40;;
41514;SDS011;27247;48.020;16.720;2023-02-22T23:15:18;32.67;;;16.80;;
41514;SDS011;27247;48.020;16.720;2023-02-22T23:19:28;30.60;;;16.45;;
41514;SDS011;27247;48.020;16.720;2023-02-22T23:23:40;33.42;;;17.60;;
41514;SDS011;27247;48.020;16.720;2023-02-22T23:27:50;32.72;;;18.33;;
41514;SDS011;27247;48.020;16.720;2023-02-22T23:32:02;33.25;;;17.83;;
41514;SDS011;27247;48.020;16.720;2023-02-22T23:36:15;35.55;;;19.20;;
41514;SDS011;27247;48.020;16.720;2023-02-22T23:40:27;36.35;;;19.13;;
41514;SDS011;27247;48.020;16.720;2023-02-22T23:44:38;37.00;;;19.92;;
41514;SDS011;27247;48.020;16.720;2023-02-22T23:48:50;36.92;;;18.58;;
41514;SDS011;27247;48.020;16.720;2023-02-22T23:53:01;40.28;;;19.33;;
41514;SDS011;27247;48.020;16.720;2023-02-22T23:57:12;36.55;;;19.75;;
